sensor_id;sensor_type;location;lat;lon;timestamp;temperature;humidity
30053;DHT22;17074;52.478;13.534;2022-07-19T00:05:09;18.90;99.90
30053;DHT22;17074;52.478;13.534;2022-07-19T00:07:35;18.80;99.90
30053;DHT22;17074;52.478;13.534;2022-07-19T00:10:02;18.70;99.90
30053;DHT22;17074;52.478;13.534;2022-07-19T00:12:28;18.70;99.90
30053;DHT22;17074;52.478;13.534;2022-07-19T00:14:54;18.60;99.90
30053;DHT22;17074;52.478;13.534;2022-07-19T00:17:19;18.60;99.90
30053;DHT22;17074;52.478;13.534;2022-07-19T00:19:45;18.60;99.90
30053;DHT22;17074;52.478;13.534;2022-07-19T00:22:11;18.60;99.90
30053;DHT22;17074;52.478;13.534;2022-07-19T00:24:36;18.50;99.90
30053;DHT22;17074;52.478;13.534;2022-07-19T00:27:02;18.60;99.90
30053;DHT22;17074;52.478;13.534;2022-07-19T00:29:28;18.50;99.90
30053;DHT22;17074;52.478;13.534;2022-07-19T00:31:53;18.50;99.90
30053;DHT22;17074;52.478;13.534;2022-07-19T00:34:20;18.50;99.90
30053;DHT22;17074;52.478;13.534;2022-07-19T00:36:46;18.40;99.90
30053;DHT22;17074;52.478;13.534;2022-07-19T00:39:11;18.30;99.90
30053;DHT22;17074;52.478;13.534;2022-07-19T00:41:41;18.30;99.90
30053;DHT22;17074;52.478;13.534;2022-07-19T00:44:08;18.20;99.90
30053;DHT22;17074;52.478;13.534;2022-07-19T00:46:34;18.20;99.90
30053;DHT22;17074;52.478;13.534;2022-07-19T00:49:00;18.20;99.90
30053;DHT22;17074;52.478;13.534;2022-07-19T00:51:26;18.20;99.90
30053;DHT22;17074;52.478;13.534;2022-07-19T00:54:12;18.20;99.90
30053;DHT22;17074;52.478;13.534;2022-07-19T00:56:38;18.10;99.90
30053;DHT22;17074;52.478;13.534;2022-07-19T00:59:05;18.10;99.90
30053;DHT22;17074;52.478;13.534;2022-07-19T01:01:33;18.20;99.90
30053;DHT22;17074;52.478;13.534;2022-07-19T01:07:20;18.00;99.90
30053;DHT22;17074;52.478;13.534;2022-07-19T01:09:46;18.00;99.90
30053;DHT22;17074;52.478;13.534;2022-07-19T01:12:12;17.90;99.90
30053;DHT22;17074;52.478;13.534;2022-07-19T01:14:38;17.90;99.90
30053;DHT22;17074;52.478;13.534;2022-07-19T01:17:04;17.80;99.90
30053;DHT22;17074;52.478;13.534;2022-07-19T01:33:06;17.60;99.90
30053;DHT22;17074;52.478;13.534;2022-07-19T01:36:02;17.60;99.90
30053;DHT22;17074;52.478;13.534;2022-07-19T01:38:28;17.60;99.90
30053;DHT22;17074;52.478;13.534;2022-07-19T01:40:54;17.60;99.90
30053;DHT22;17074;52.478;13.534;2022-07-19T01:43:19;17.50;99.90
30053;DHT22;17074;52.478;13.534;2022-07-19T01:45:45;17.50;99.90
30053;DHT22;17074;52.478;13.534;2022-07-19T01:48:10;17.50;99.90
30053;DHT22;17074;52.478;13.534;2022-07-19T01:50:36;17.40;99.90
30053;DHT22;17074;52.478;13.534;2022-07-19T01:53:02;17.40;99.90
30053;DHT22;17074;52.478;13.534;2022-07-19T01:55:27;17.40;99.90
30053;DHT22;17074;52.478;13.534;2022-07-19T01:57:53;17.30;99.90
30053;DHT22;17074;52.478;13.534;2022-07-19T02:00:19;17.30;99.90
30053;DHT22;17074;52.478;13.534;2022-07-19T02:02:44;17.20;99.90
30053;DHT22;17074;52.478;13.534;2022-07-19T02:05:10;17.20;99.90
30053;DHT22;17074;52.478;13.534;2022-07-19T02:07:36;17.20;99.90
30053;DHT22;17074;52.478;13.534;2022-07-19T02:10:03;17.10;99.90
30053;DHT22;17074;52.478;13.534;2022-07-19T02:12:29;17.10;99.90
30053;DHT22;17074;52.478;13.534;2022-07-19T02:14:56;17.10;99.90
30053;DHT22;17074;52.478;13.534;2022-07-19T02:17:21;17.10;99.90
30053;DHT22;17074;52.478;13.534;2022-07-19T02:19:47;17.00;99.90
30053;DHT22;17074;52.478;13.534;2022-07-19T02:22:13;17.00;99.90
30053;DHT22;17074;52.478;13.534;2022-07-19T02:24:38;17.00;99.90
30053;DHT22;17074;52.478;13.534;2022-07-19T02:27:08;17.00;99.90
30053;DHT22;17074;52.478;13.534;2022-07-19T02:29:34;16.90;99.90
30053;DHT22;17074;52.478;13.534;2022-07-19T02:31:59;16.90;99.90
30053;DHT22;17074;52.478;13.534;2022-07-19T02:34:25;16.90;99.90
30053;DHT22;17074;52.478;13.534;2022-07-19T02:36:50;16.90;99.90
30053;DHT22;17074;52.478;13.534;2022-07-19T02:39:16;16.80;99.90
30053;DHT22;17074;52.478;13.534;2022-07-19T02:41:42;16.80;99.90
30053;DHT22;17074;52.478;13.534;2022-07-19T02:44:07;16.80;99.90
30053;DHT22;17074;52.478;13.534;2022-07-19T02:46:33;16.80;99.90
30053;DHT22;17074;52.478;13.534;2022-07-19T02:49:00;16.70;99.90
30053;DHT22;17074;52.478;13.534;2022-07-19T02:51:25;16.70;99.90
30053;DHT22;17074;52.478;13.534;2022-07-19T02:53:51;16.70;99.90
30053;DHT22;17074;52.478;13.534;2022-07-19T02:56:17;16.70;99.90
30053;DHT22;17074;52.478;13.534;2022-07-19T02:58:43;16.60;99.90
30053;DHT22;17074;52.478;13.534;2022-07-19T03:01:08;16.60;99.90
30053;DHT22;17074;52.478;13.534;2022-07-19T03:03:35;16.60;99.90
30053;DHT22;17074;52.478;13.534;2022-07-19T03:06:10;16.60;99.90
30053;DHT22;17074;52.478;13.534;2022-07-19T03:08:36;16.50;99.90
30053;DHT22;17074;52.478;13.534;2022-07-19T03:11:02;16.50;99.90
30053;DHT22;17074;52.478;13.534;2022-07-19T03:13:28;16.50;99.90
30053;DHT22;17074;52.478;13.534;2022-07-19T03:15:53;16.50;99.90
30053;DHT22;17074;52.478;13.534;2022-07-19T03:18:19;16.50;99.90
30053;DHT22;17074;52.478;13.534;2022-07-19T03:20:45;16.50;99.90
30053;DHT22;17074;52.478;13.534;2022-07-19T03:23:11;16.50;99.90
30053;DHT22;17074;52.478;13.534;2022-07-19T03:25:36;16.50;99.90
30053;DHT22;17074;52.478;13.534;2022-07-19T03:28:02;16.60;99.90
30053;DHT22;17074;52.478;13.534;2022-07-19T03:30:28;16.60;99.90
30053;DHT22;17074;52.478;13.534;2022-07-19T03:32:54;16.70;99.90
30053;DHT22;17074;52.478;13.534;2022-07-19T03:35:20;16.80;99.90
30053;DHT22;17074;52.478;13.534;2022-07-19T03:37:46;16.90;99.90
30053;DHT22;17074;52.478;13.534;2022-07-19T03:40:12;17.00;99.90
30053;DHT22;17074;52.478;13.534;2022-07-19T03:42:38;17.10;99.90
30053;DHT22;17074;52.478;13.534;2022-07-19T03:45:04;17.20;99.90
30053;DHT22;17074;52.478;13.534;2022-07-19T03:47:30;17.30;99.90
30053;DHT22;17074;52.478;13.534;2022-07-19T03:49:55;17.40;99.90
30053;DHT22;17074;52.478;13.534;2022-07-19T03:52:22;17.40;99.90
30053;DHT22;17074;52.478;13.534;2022-07-19T03:54:48;17.50;99.90
30053;DHT22;17074;52.478;13.534;2022-07-19T03:57:14;17.60;99.90
30053;DHT22;17074;52.478;13.534;2022-07-19T03:59:39;17.70;99.90
30053;DHT22;17074;52.478;13.534;2022-07-19T04:02:05;17.80;99.90
30053;DHT22;17074;52.478;13.534;2022-07-19T04:04:31;17.90;99.90
30053;DHT22;17074;52.478;13.534;2022-07-19T04:06:57;17.90;99.90
30053;DHT22;17074;52.478;13.534;2022-07-19T04:09:22;18.10;99.90
30053;DHT22;17074;52.478;13.534;2022-07-19T04:11:48;18.30;99.90
30053;DHT22;17074;52.478;13.534;2022-07-19T04:14:14;18.60;99.90
30053;DHT22;17074;52.478;13.534;2022-07-19T04:16:40;18.90;99.90
30053;DHT22;17074;52.478;13.534;2022-07-19T04:19:05;19.20;99.90
30053;DHT22;17074;52.478;13.534;2022-07-19T04:21:31;19.60;99.90
30053;DHT22;17074;52.478;13.534;2022-07-19T04:23:57;19.90;99.90
30053;DHT22;17074;52.478;13.534;2022-07-19T04:26:22;20.40;99.90
30053;DHT22;17074;52.478;13.534;2022-07-19T04:28:48;20.70;99.90
30053;DHT22;17074;52.478;13.534;2022-07-19T04:31:14;21.20;99.90
30053;DHT22;17074;52.478;13.534;2022-07-19T04:33:40;21.60;99.90
30053;DHT22;17074;52.478;13.534;2022-07-19T04:36:06;21.70;99.90
30053;DHT22;17074;52.478;13.534;2022-07-19T04:38:31;21.60;99.90
30053;DHT22;17074;52.478;13.534;2022-07-19T04:40:57;21.50;99.90
30053;DHT22;17074;52.478;13.534;2022-07-19T04:43:23;21.40;99.90
30053;DHT22;17074;52.478;13.534;2022-07-19T04:45:48;21.40;99.90
30053;DHT22;17074;52.478;13.534;2022-07-19T04:48:14;21.20;99.90
30053;DHT22;17074;52.478;13.534;2022-07-19T04:50:40;20.90;99.90
30053;DHT22;17074;52.478;13.534;2022-07-19T04:53:06;20.70;99.90
30053;DHT22;17074;52.478;13.534;2022-07-19T04:55:32;20.60;99.90
30053;DHT22;17074;52.478;13.534;2022-07-19T04:57:58;20.50;99.90
30053;DHT22;17074;52.478;13.534;2022-07-19T05:00:24;20.50;99.90
30053;DHT22;17074;52.478;13.534;2022-07-19T05:02:50;20.60;99.90
30053;DHT22;17074;52.478;13.534;2022-07-19T05:05:15;20.70;99.90
30053;DHT22;17074;52.478;13.534;2022-07-19T05:07:41;20.80;99.90
30053;DHT22;17074;52.478;13.534;2022-07-19T05:10:09;20.90;99.90
30053;DHT22;17074;52.478;13.534;2022-07-19T05:12:36;21.00;99.90
30053;DHT22;17074;52.478;13.534;2022-07-19T05:15:01;21.10;99.90
30053;DHT22;17074;52.478;13.534;2022-07-19T05:17:27;21.20;99.90
30053;DHT22;17074;52.478;13.534;2022-07-19T05:19:53;21.30;99.90
30053;DHT22;17074;52.478;13.534;2022-07-19T05:22:18;21.40;99.90
30053;DHT22;17074;52.478;13.534;2022-07-19T05:24:44;21.40;99.90
30053;DHT22;17074;52.478;13.534;2022-07-19T05:27:10;21.50;99.90
30053;DHT22;17074;52.478;13.534;2022-07-19T05:29:35;21.50;99.90
30053;DHT22;17074;52.478;13.534;2022-07-19T05:32:01;21.70;99.90
30053;DHT22;17074;52.478;13.534;2022-07-19T05:34:27;21.70;99.90
30053;DHT22;17074;52.478;13.534;2022-07-19T05:36:53;21.80;99.90
30053;DHT22;17074;52.478;13.534;2022-07-19T05:39:19;21.90;99.90
30053;DHT22;17074;52.478;13.534;2022-07-19T05:41:44;22.10;99.90
30053;DHT22;17074;52.478;13.534;2022-07-19T05:44:10;22.10;99.90
30053;DHT22;17074;52.478;13.534;2022-07-19T05:46:36;22.10;99.90
30053;DHT22;17074;52.478;13.534;2022-07-19T05:49:06;22.20;99.90
30053;DHT22;17074;52.478;13.534;2022-07-19T05:51:32;22.30;99.90
30053;DHT22;17074;52.478;13.534;2022-07-19T05:53:58;22.40;99.90
30053;DHT22;17074;52.478;13.534;2022-07-19T05:56:26;22.50;99.90
30053;DHT22;17074;52.478;13.534;2022-07-19T05:58:52;22.70;99.90
30053;DHT22;17074;52.478;13.534;2022-07-19T06:01:17;22.80;99.90
30053;DHT22;17074;52.478;13.534;2022-07-19T06:03:43;22.80;99.90
30053;DHT22;17074;52.478;13.534;2022-07-19T06:06:09;23.00;99.90
30053;DHT22;17074;52.478;13.534;2022-07-19T06:08:35;23.10;99.90
30053;DHT22;17074;52.478;13.534;2022-07-19T06:11:01;23.20;99.90
30053;DHT22;17074;52.478;13.534;2022-07-19T06:13:26;23.30;99.90
30053;DHT22;17074;52.478;13.534;2022-07-19T06:15:52;23.50;99.90
30053;DHT22;17074;52.478;13.534;2022-07-19T06:18:18;23.80;99.90
30053;DHT22;17074;52.478;13.534;2022-07-19T06:20:44;24.30;99.90
30053;DHT22;17074;52.478;13.534;2022-07-19T06:23:10;24.70;99.90
30053;DHT22;17074;52.478;13.534;2022-07-19T06:25:35;25.20;99.90
30053;DHT22;17074;52.478;13.534;2022-07-19T06:28:01;25.60;99.90
30053;DHT22;17074;52.478;13.534;2022-07-19T06:30:27;25.90;99.90
30053;DHT22;17074;52.478;13.534;2022-07-19T06:32:52;26.10;99.90
30053;DHT22;17074;52.478;13.534;2022-07-19T06:35:18;26.30;99.90
30053;DHT22;17074;52.478;13.534;2022-07-19T06:37:43;26.20;99.90
30053;DHT22;17074;52.478;13.534;2022-07-19T06:40:09;26.20;99.90
30053;DHT22;17074;52.478;13.534;2022-07-19T06:42:35;26.10;99.90
30053;DHT22;17074;52.478;13.534;2022-07-19T06:45:01;26.10;99.90
30053;DHT22;17074;52.478;13.534;2022-07-19T06:47:30;26.20;99.90
30053;DHT22;17074;52.478;13.534;2022-07-19T06:49:56;26.20;99.90
30053;DHT22;17074;52.478;13.534;2022-07-19T06:52:21;26.50;99.90
30053;DHT22;17074;52.478;13.534;2022-07-19T06:54:47;27.00;99.90
30053;DHT22;17074;52.478;13.534;2022-07-19T06:57:12;27.50;98.80
30053;DHT22;17074;52.478;13.534;2022-07-19T06:59:38;27.70;97.80
30053;DHT22;17074;52.478;13.534;2022-07-19T07:02:04;27.70;97.50
30053;DHT22;17074;52.478;13.534;2022-07-19T07:04:30;27.60;97.50
30053;DHT22;17074;52.478;13.534;2022-07-19T07:06:56;27.90;96.10
30053;DHT22;17074;52.478;13.534;2022-07-19T07:09:22;27.90;95.60
30053;DHT22;17074;52.478;13.534;2022-07-19T07:11:47;28.20;95.20
30053;DHT22;17074;52.478;13.534;2022-07-19T07:14:13;27.90;94.00
30053;DHT22;17074;52.478;13.534;2022-07-19T07:16:39;28.00;94.00
30053;DHT22;17074;52.478;13.534;2022-07-19T07:19:05;28.10;94.40
30053;DHT22;17074;52.478;13.534;2022-07-19T07:21:31;28.30;93.50
30053;DHT22;17074;52.478;13.534;2022-07-19T07:24:00;29.00;93.30
30053;DHT22;17074;52.478;13.534;2022-07-19T07:26:27;29.40;93.00
30053;DHT22;17074;52.478;13.534;2022-07-19T07:28:53;29.80;91.50
30053;DHT22;17074;52.478;13.534;2022-07-19T07:31:18;29.60;90.90
30053;DHT22;17074;52.478;13.534;2022-07-19T07:33:44;29.60;90.60
30053;DHT22;17074;52.478;13.534;2022-07-19T07:36:10;29.50;90.00
30053;DHT22;17074;52.478;13.534;2022-07-19T07:38:35;29.40;90.50
30053;DHT22;17074;52.478;13.534;2022-07-19T07:41:01;29.60;90.50
30053;DHT22;17074;52.478;13.534;2022-07-19T07:43:28;29.80;91.00
30053;DHT22;17074;52.478;13.534;2022-07-19T07:45:53;29.90;89.00
30053;DHT22;17074;52.478;13.534;2022-07-19T07:48:19;30.00;87.10
30053;DHT22;17074;52.478;13.534;2022-07-19T07:50:44;30.00;87.70
30053;DHT22;17074;52.478;13.534;2022-07-19T07:53:10;30.20;87.50
30053;DHT22;17074;52.478;13.534;2022-07-19T07:55:36;29.50;86.60
30053;DHT22;17074;52.478;13.534;2022-07-19T07:58:08;29.10;87.10
30053;DHT22;17074;52.478;13.534;2022-07-19T08:00:35;29.30;88.10
30053;DHT22;17074;52.478;13.534;2022-07-19T08:03:01;29.70;87.90
30053;DHT22;17074;52.478;13.534;2022-07-19T08:05:27;30.20;86.90
30053;DHT22;17074;52.478;13.534;2022-07-19T08:07:53;30.30;86.40
30053;DHT22;17074;52.478;13.534;2022-07-19T08:10:22;31.00;86.50
30053;DHT22;17074;52.478;13.534;2022-07-19T08:12:47;31.80;85.00
30053;DHT22;17074;52.478;13.534;2022-07-19T08:15:13;31.70;79.20
30053;DHT22;17074;52.478;13.534;2022-07-19T08:17:39;31.10;81.00
30053;DHT22;17074;52.478;13.534;2022-07-19T08:20:05;31.50;80.90
30053;DHT22;17074;52.478;13.534;2022-07-19T08:22:31;31.70;80.10
30053;DHT22;17074;52.478;13.534;2022-07-19T08:24:56;32.30;79.00
30053;DHT22;17074;52.478;13.534;2022-07-19T08:27:22;32.70;79.30
30053;DHT22;17074;52.478;13.534;2022-07-19T08:29:48;32.90;77.60
30053;DHT22;17074;52.478;13.534;2022-07-19T08:32:13;32.60;77.80
30053;DHT22;17074;52.478;13.534;2022-07-19T08:34:39;32.90;78.00
30053;DHT22;17074;52.478;13.534;2022-07-19T08:37:05;33.30;74.80
30053;DHT22;17074;52.478;13.534;2022-07-19T08:39:30;33.60;75.10
30053;DHT22;17074;52.478;13.534;2022-07-19T08:41:56;33.70;74.20
30053;DHT22;17074;52.478;13.534;2022-07-19T08:44:22;33.50;74.30
30053;DHT22;17074;52.478;13.534;2022-07-19T08:46:48;33.40;74.10
30053;DHT22;17074;52.478;13.534;2022-07-19T08:49:15;33.10;72.20
30053;DHT22;17074;52.478;13.534;2022-07-19T08:51:44;33.00;73.20
30053;DHT22;17074;52.478;13.534;2022-07-19T08:54:12;32.80;73.40
30053;DHT22;17074;52.478;13.534;2022-07-19T08:56:37;32.50;73.80
30053;DHT22;17074;52.478;13.534;2022-07-19T08:59:23;32.20;73.50
30053;DHT22;17074;52.478;13.534;2022-07-19T09:01:49;32.00;74.90
30053;DHT22;17074;52.478;13.534;2022-07-19T09:04:19;31.60;72.40
30053;DHT22;17074;52.478;13.534;2022-07-19T09:06:49;31.40;72.80
30053;DHT22;17074;52.478;13.534;2022-07-19T09:11:52;31.10;71.90
30053;DHT22;17074;52.478;13.534;2022-07-19T09:14:24;31.00;73.10
30053;DHT22;17074;52.478;13.534;2022-07-19T09:17:09;30.70;73.70
30053;DHT22;17074;52.478;13.534;2022-07-19T09:19:40;30.30;74.40
30053;DHT22;17074;52.478;13.534;2022-07-19T09:22:09;30.40;74.50
30053;DHT22;17074;52.478;13.534;2022-07-19T09:24:40;30.40;73.50
30053;DHT22;17074;52.478;13.534;2022-07-19T09:27:11;30.30;73.70
30053;DHT22;17074;52.478;13.534;2022-07-19T09:29:42;30.10;74.30
30053;DHT22;17074;52.478;13.534;2022-07-19T09:32:15;30.10;73.80
30053;DHT22;17074;52.478;13.534;2022-07-19T09:34:58;30.10;73.80
30053;DHT22;17074;52.478;13.534;2022-07-19T09:37:32;30.30;73.90
30053;DHT22;17074;52.478;13.534;2022-07-19T09:40:00;30.40;71.80
30053;DHT22;17074;52.478;13.534;2022-07-19T09:42:43;30.40;70.40
30053;DHT22;17074;52.478;13.534;2022-07-19T09:45:12;30.50;72.50
30053;DHT22;17074;52.478;13.534;2022-07-19T09:47:47;30.40;73.00
30053;DHT22;17074;52.478;13.534;2022-07-19T09:50:22;30.50;74.00
30053;DHT22;17074;52.478;13.534;2022-07-19T09:52:49;30.70;72.60
30053;DHT22;17074;52.478;13.534;2022-07-19T09:55:16;30.80;72.00
30053;DHT22;17074;52.478;13.534;2022-07-19T09:57:44;31.00;71.90
30053;DHT22;17074;52.478;13.534;2022-07-19T10:00:11;31.00;69.30
30053;DHT22;17074;52.478;13.534;2022-07-19T10:02:40;30.70;69.80
30053;DHT22;17074;52.478;13.534;2022-07-19T10:05:07;30.80;70.20
30053;DHT22;17074;52.478;13.534;2022-07-19T10:07:33;30.90;68.30
30053;DHT22;17074;52.478;13.534;2022-07-19T10:10:11;30.80;67.80
30053;DHT22;17074;52.478;13.534;2022-07-19T10:12:38;31.00;67.70
30053;DHT22;17074;52.478;13.534;2022-07-19T10:15:06;31.20;67.40
30053;DHT22;17074;52.478;13.534;2022-07-19T10:17:47;31.20;67.20
30053;DHT22;17074;52.478;13.534;2022-07-19T10:20:16;31.20;66.30
30053;DHT22;17074;52.478;13.534;2022-07-19T10:22:43;31.00;66.20
30053;DHT22;17074;52.478;13.534;2022-07-19T10:25:14;31.10;67.10
30053;DHT22;17074;52.478;13.534;2022-07-19T10:27:48;31.30;67.00
30053;DHT22;17074;52.478;13.534;2022-07-19T10:32:42;31.60;66.90
30053;DHT22;17074;52.478;13.534;2022-07-19T10:37:53;31.90;66.30
30053;DHT22;17074;52.478;13.534;2022-07-19T10:43:08;31.90;65.90
30053;DHT22;17074;52.478;13.534;2022-07-19T10:45:35;31.90;66.10
30053;DHT22;17074;52.478;13.534;2022-07-19T10:48:03;31.80;64.40
30053;DHT22;17074;52.478;13.534;2022-07-19T10:50:46;31.90;64.80
30053;DHT22;17074;52.478;13.534;2022-07-19T11:01:17;32.20;65.10
30053;DHT22;17074;52.478;13.534;2022-07-19T11:03:48;32.00;63.30
30053;DHT22;17074;52.478;13.534;2022-07-19T11:06:22;32.10;63.60
30053;DHT22;17074;52.478;13.534;2022-07-19T11:08:51;32.20;62.60
30053;DHT22;17074;52.478;13.534;2022-07-19T11:11:19;32.30;62.80
30053;DHT22;17074;52.478;13.534;2022-07-19T11:13:47;32.20;63.60
30053;DHT22;17074;52.478;13.534;2022-07-19T11:16:14;32.00;60.20
30053;DHT22;17074;52.478;13.534;2022-07-19T11:18:39;32.00;62.40
30053;DHT22;17074;52.478;13.534;2022-07-19T11:21:07;32.20;62.60
30053;DHT22;17074;52.478;13.534;2022-07-19T11:23:37;32.30;60.70
30053;DHT22;17074;52.478;13.534;2022-07-19T11:26:17;32.00;60.40
30053;DHT22;17074;52.478;13.534;2022-07-19T11:28:44;32.20;62.10
30053;DHT22;17074;52.478;13.534;2022-07-19T11:31:12;32.20;59.70
30053;DHT22;17074;52.478;13.534;2022-07-19T11:33:38;32.30;59.10
30053;DHT22;17074;52.478;13.534;2022-07-19T11:36:04;32.40;59.50
30053;DHT22;17074;52.478;13.534;2022-07-19T11:38:42;32.40;59.80
30053;DHT22;17074;52.478;13.534;2022-07-19T11:41:21;32.40;60.90
30053;DHT22;17074;52.478;13.534;2022-07-19T11:44:07;32.20;60.90
30053;DHT22;17074;52.478;13.534;2022-07-19T11:46:38;32.30;60.90
30053;DHT22;17074;52.478;13.534;2022-07-19T11:49:07;32.50;61.00
30053;DHT22;17074;52.478;13.534;2022-07-19T11:51:33;32.40;59.80
30053;DHT22;17074;52.478;13.534;2022-07-19T11:54:00;32.60;59.80
30053;DHT22;17074;52.478;13.534;2022-07-19T11:56:31;32.50;60.10
30053;DHT22;17074;52.478;13.534;2022-07-19T11:58:59;32.50;59.70
30053;DHT22;17074;52.478;13.534;2022-07-19T12:01:31;32.30;60.70
30053;DHT22;17074;52.478;13.534;2022-07-19T12:04:08;32.50;60.00
30053;DHT22;17074;52.478;13.534;2022-07-19T12:06:35;32.70;59.50
30053;DHT22;17074;52.478;13.534;2022-07-19T12:09:13;32.70;59.40
30053;DHT22;17074;52.478;13.534;2022-07-19T12:11:43;32.80;60.50
30053;DHT22;17074;52.478;13.534;2022-07-19T12:14:26;32.80;59.40
30053;DHT22;17074;52.478;13.534;2022-07-19T12:17:10;32.80;58.70
30053;DHT22;17074;52.478;13.534;2022-07-19T12:19:36;32.90;60.10
30053;DHT22;17074;52.478;13.534;2022-07-19T12:22:02;32.90;60.00
30053;DHT22;17074;52.478;13.534;2022-07-19T12:24:28;32.90;59.00
30053;DHT22;17074;52.478;13.534;2022-07-19T12:26:58;33.00;59.10
30053;DHT22;17074;52.478;13.534;2022-07-19T12:29:29;32.90;59.00
30053;DHT22;17074;52.478;13.534;2022-07-19T12:32:00;32.80;59.30
30053;DHT22;17074;52.478;13.534;2022-07-19T12:34:27;32.70;59.20
30053;DHT22;17074;52.478;13.534;2022-07-19T12:36:54;32.80;59.10
30053;DHT22;17074;52.478;13.534;2022-07-19T12:39:28;32.80;57.90
30053;DHT22;17074;52.478;13.534;2022-07-19T12:42:05;33.00;58.00
30053;DHT22;17074;52.478;13.534;2022-07-19T12:44:33;32.90;57.50
30053;DHT22;17074;52.478;13.534;2022-07-19T12:46:59;32.80;57.20
30053;DHT22;17074;52.478;13.534;2022-07-19T12:49:25;32.60;58.40
30053;DHT22;17074;52.478;13.534;2022-07-19T12:51:52;32.80;58.40
30053;DHT22;17074;52.478;13.534;2022-07-19T12:54:18;32.80;58.50
30053;DHT22;17074;52.478;13.534;2022-07-19T12:56:43;32.80;58.70
30053;DHT22;17074;52.478;13.534;2022-07-19T12:59:09;32.80;58.50
30053;DHT22;17074;52.478;13.534;2022-07-19T13:01:53;32.90;58.10
30053;DHT22;17074;52.478;13.534;2022-07-19T13:04:19;32.90;58.20
30053;DHT22;17074;52.478;13.534;2022-07-19T13:06:46;33.00;58.20
30053;DHT22;17074;52.478;13.534;2022-07-19T13:09:12;33.00;57.80
30053;DHT22;17074;52.478;13.534;2022-07-19T13:11:38;33.00;57.80
30053;DHT22;17074;52.478;13.534;2022-07-19T13:14:03;33.00;58.50
30053;DHT22;17074;52.478;13.534;2022-07-19T13:16:32;33.00;59.50
30053;DHT22;17074;52.478;13.534;2022-07-19T13:18:57;33.00;58.90
30053;DHT22;17074;52.478;13.534;2022-07-19T13:21:23;33.10;58.30
30053;DHT22;17074;52.478;13.534;2022-07-19T13:23:49;33.00;57.40
30053;DHT22;17074;52.478;13.534;2022-07-19T13:26:15;33.10;57.50
30053;DHT22;17074;52.478;13.534;2022-07-19T13:28:41;33.00;57.50
30053;DHT22;17074;52.478;13.534;2022-07-19T13:31:06;33.10;58.00
30053;DHT22;17074;52.478;13.534;2022-07-19T13:33:35;33.00;57.70
30053;DHT22;17074;52.478;13.534;2022-07-19T13:36:00;33.10;58.00
30053;DHT22;17074;52.478;13.534;2022-07-19T13:38:26;33.20;57.30
30053;DHT22;17074;52.478;13.534;2022-07-19T13:40:52;33.10;57.70
30053;DHT22;17074;52.478;13.534;2022-07-19T13:43:17;33.20;58.00
30053;DHT22;17074;52.478;13.534;2022-07-19T13:45:43;33.40;57.90
30053;DHT22;17074;52.478;13.534;2022-07-19T13:48:09;33.40;57.40
30053;DHT22;17074;52.478;13.534;2022-07-19T13:50:36;33.50;57.60
30053;DHT22;17074;52.478;13.534;2022-07-19T13:53:02;33.50;57.40
30053;DHT22;17074;52.478;13.534;2022-07-19T13:55:28;33.40;56.90
30053;DHT22;17074;52.478;13.534;2022-07-19T13:57:54;33.30;57.30
30053;DHT22;17074;52.478;13.534;2022-07-19T14:00:20;33.30;56.50
30053;DHT22;17074;52.478;13.534;2022-07-19T14:02:46;33.50;56.20
30053;DHT22;17074;52.478;13.534;2022-07-19T14:05:14;33.60;55.90
30053;DHT22;17074;52.478;13.534;2022-07-19T14:07:40;33.50;55.90
30053;DHT22;17074;52.478;13.534;2022-07-19T14:10:06;33.50;56.90
30053;DHT22;17074;52.478;13.534;2022-07-19T14:12:32;33.50;56.70
30053;DHT22;17074;52.478;13.534;2022-07-19T14:14:57;33.50;56.90
30053;DHT22;17074;52.478;13.534;2022-07-19T14:17:23;33.50;56.90
30053;DHT22;17074;52.478;13.534;2022-07-19T14:19:49;33.60;56.60
30053;DHT22;17074;52.478;13.534;2022-07-19T14:22:14;33.70;56.60
30053;DHT22;17074;52.478;13.534;2022-07-19T14:24:41;33.70;56.10
30053;DHT22;17074;52.478;13.534;2022-07-19T14:27:07;33.70;56.60
30053;DHT22;17074;52.478;13.534;2022-07-19T14:29:32;33.60;57.90
30053;DHT22;17074;52.478;13.534;2022-07-19T14:31:58;33.60;57.10
30053;DHT22;17074;52.478;13.534;2022-07-19T14:34:24;33.60;56.40
30053;DHT22;17074;52.478;13.534;2022-07-19T14:36:49;33.60;56.10
30053;DHT22;17074;52.478;13.534;2022-07-19T14:39:15;33.50;56.80
30053;DHT22;17074;52.478;13.534;2022-07-19T14:41:41;33.40;57.70
30053;DHT22;17074;52.478;13.534;2022-07-19T14:44:06;33.40;55.00
30053;DHT22;17074;52.478;13.534;2022-07-19T14:46:32;33.30;55.60
30053;DHT22;17074;52.478;13.534;2022-07-19T14:48:57;33.20;56.00
30053;DHT22;17074;52.478;13.534;2022-07-19T14:51:23;33.40;55.60
30053;DHT22;17074;52.478;13.534;2022-07-19T14:53:49;33.20;55.40
30053;DHT22;17074;52.478;13.534;2022-07-19T14:56:14;33.20;55.80
30053;DHT22;17074;52.478;13.534;2022-07-19T14:58:40;33.10;55.90
30053;DHT22;17074;52.478;13.534;2022-07-19T15:01:09;33.10;55.70
30053;DHT22;17074;52.478;13.534;2022-07-19T15:03:35;33.40;55.30
30053;DHT22;17074;52.478;13.534;2022-07-19T15:06:01;33.30;54.20
30053;DHT22;17074;52.478;13.534;2022-07-19T15:08:27;33.30;54.40
30053;DHT22;17074;52.478;13.534;2022-07-19T15:10:53;33.40;54.50
30053;DHT22;17074;52.478;13.534;2022-07-19T15:13:19;33.50;54.80
30053;DHT22;17074;52.478;13.534;2022-07-19T15:15:45;33.40;55.00
30053;DHT22;17074;52.478;13.534;2022-07-19T15:18:11;33.30;55.50
30053;DHT22;17074;52.478;13.534;2022-07-19T15:20:38;33.30;55.40
30053;DHT22;17074;52.478;13.534;2022-07-19T15:23:04;33.30;55.40
30053;DHT22;17074;52.478;13.534;2022-07-19T15:25:29;33.30;54.60
30053;DHT22;17074;52.478;13.534;2022-07-19T15:27:55;33.30;54.50
30053;DHT22;17074;52.478;13.534;2022-07-19T15:30:22;33.10;53.70
30053;DHT22;17074;52.478;13.534;2022-07-19T15:32:48;33.30;54.10
30053;DHT22;17074;52.478;13.534;2022-07-19T15:35:14;33.30;54.40
30053;DHT22;17074;52.478;13.534;2022-07-19T15:37:40;33.20;54.00
30053;DHT22;17074;52.478;13.534;2022-07-19T15:40:06;33.30;53.90
30053;DHT22;17074;52.478;13.534;2022-07-19T15:42:42;33.20;54.60
30053;DHT22;17074;52.478;13.534;2022-07-19T15:45:08;33.10;55.00
30053;DHT22;17074;52.478;13.534;2022-07-19T15:47:34;33.10;54.80
30053;DHT22;17074;52.478;13.534;2022-07-19T15:49:59;33.00;55.30
30053;DHT22;17074;52.478;13.534;2022-07-19T15:52:39;33.10;55.40
30053;DHT22;17074;52.478;13.534;2022-07-19T15:55:07;33.10;56.00